sensor_id;sensor_type;location;lat;lon;timestamp;P1;durP1;ratioP1;P2;durP2;ratioP2
69678;SDS011;56915;52.046;4.854;2023-04-29T00:01:21;39.05;;;15.52;;
69678;SDS011;56915;52.046;4.854;2023-04-29T00:03:48;42.05;;;17.00;;
69678;SDS011;56915;52.046;4.854;2023-04-29T00:06:15;37.20;;;14.45;;
69678;SDS011;56915;52.046;4.854;2023-04-29T00:08:42;30.60;;;10.03;;
69678;SDS011;56915;52.046;4.854;2023-04-29T00:11:09;37.38;;;16.60;;
69678;SDS011;56915;52.046;4.854;2023-04-29T00:13:38;39.80;;;16.80;;
69678;SDS011;56915;52.046;4.854;2023-04-29T00:16:06;41.60;;;16.52;;
69678;SDS011;56915;52.046;4.854;2023-04-29T00:18:35;46.28;;;18.00;;
69678;SDS011;56915;52.046;4.854;2023-04-29T00:21:05;37.63;;;16.50;;
69678;SDS011;56915;52.046;4.854;2023-04-29T00:23:32;38.22;;;14.88;;
69678;SDS011;56915;52.046;4.854;2023-04-29T00:25:59;26.50;;;12.82;;
69678;SDS011;56915;52.046;4.854;2023-04-29T00:28:26;37.53;;;16.13;;
69678;SDS011;56915;52.046;4.854;2023-04-29T00:30:53;32.53;;;13.30;;
69678;SDS011;56915;52.046;4.854;2023-04-29T00:33:21;41.70;;;16.40;;
69678;SDS011;56915;52.046;4.854;2023-04-29T00:35:48;38.38;;;15.40;;
69678;SDS011;56915;52.046;4.854;2023-04-29T00:38:15;37.00;;;16.20;;
69678;SDS011;56915;52.046;4.854;2023-04-29T00:40:43;35.00;;;14.85;;
69678;SDS011;56915;52.046;4.854;2023-04-29T00:43:09;40.95;;;17.50;;
69678;SDS011;56915;52.046;4.854;2023-04-29T00:45:36;44.33;;;16.80;;
69678;SDS011;56915;52.046;4.854;2023-04-29T00:48:03;37.90;;;16.98;;
69678;SDS011;56915;52.046;4.854;2023-04-29T00:50:30;35.83;;;14.05;;
69678;SDS011;56915;52.046;4.854;2023-04-29T00:52:57;30.58;;;12.88;;
69678;SDS011;56915;52.046;4.854;2023-04-29T00:55:24;37.08;;;16.83;;
69678;SDS011;56915;52.046;4.854;2023-04-29T00:57:52;41.20;;;17.37;;
69678;SDS011;56915;52.046;4.854;2023-04-29T01:00:19;36.10;;;13.25;;
69678;SDS011;56915;52.046;4.854;2023-04-29T01:02:45;42.47;;;16.98;;
69678;SDS011;56915;52.046;4.854;2023-04-29T01:05:14;36.05;;;15.40;;
69678;SDS011;56915;52.046;4.854;2023-04-29T01:10:38;42.43;;;16.70;;
69678;SDS011;56915;52.046;4.854;2023-04-29T01:13:15;35.55;;;15.30;;
69678;SDS011;56915;52.046;4.854;2023-04-29T01:15:46;45.03;;;17.83;;
69678;SDS011;56915;52.046;4.854;2023-04-29T01:18:31;32.92;;;13.85;;
69678;SDS011;56915;52.046;4.854;2023-04-29T01:21:02;32.20;;;13.93;;
69678;SDS011;56915;52.046;4.854;2023-04-29T01:23:29;40.57;;;17.03;;
69678;SDS011;56915;52.046;4.854;2023-04-29T01:25:56;43.65;;;18.65;;
69678;SDS011;56915;52.046;4.854;2023-04-29T01:31:24;35.80;;;15.85;;
69678;SDS011;56915;52.046;4.854;2023-04-29T01:36:52;33.23;;;13.07;;
69678;SDS011;56915;52.046;4.854;2023-04-29T01:39:28;34.05;;;14.98;;
69678;SDS011;56915;52.046;4.854;2023-04-29T01:42:04;38.10;;;16.88;;
69678;SDS011;56915;52.046;4.854;2023-04-29T01:44:44;37.58;;;16.73;;
69678;SDS011;56915;52.046;4.854;2023-04-29T01:47:14;33.67;;;14.80;;
69678;SDS011;56915;52.046;4.854;2023-04-29T01:49:42;43.10;;;17.77;;
69678;SDS011;56915;52.046;4.854;2023-04-29T01:52:11;38.63;;;17.25;;
69678;SDS011;56915;52.046;4.854;2023-04-29T01:54:38;38.67;;;16.55;;
69678;SDS011;56915;52.046;4.854;2023-04-29T01:57:05;36.88;;;15.57;;
69678;SDS011;56915;52.046;4.854;2023-04-29T01:59:32;33.53;;;14.45;;
69678;SDS011;56915;52.046;4.854;2023-04-29T02:01:59;33.27;;;15.47;;
69678;SDS011;56915;52.046;4.854;2023-04-29T02:04:25;38.80;;;16.80;;
69678;SDS011;56915;52.046;4.854;2023-04-29T02:06:53;38.33;;;16.40;;
69678;SDS011;56915;52.046;4.854;2023-04-29T02:09:20;37.63;;;16.85;;
69678;SDS011;56915;52.046;4.854;2023-04-29T02:11:47;33.08;;;16.33;;
69678;SDS011;56915;52.046;4.854;2023-04-29T02:14:14;34.63;;;15.13;;
69678;SDS011;56915;52.046;4.854;2023-04-29T02:16:42;34.80;;;16.17;;
69678;SDS011;56915;52.046;4.854;2023-04-29T02:19:10;36.55;;;16.02;;
69678;SDS011;56915;52.046;4.854;2023-04-29T02:21:38;31.33;;;14.70;;
69678;SDS011;56915;52.046;4.854;2023-04-29T02:24:05;32.42;;;14.50;;
69678;SDS011;56915;52.046;4.854;2023-04-29T02:26:32;27.63;;;13.10;;
69678;SDS011;56915;52.046;4.854;2023-04-29T02:28:59;27.27;;;12.40;;
69678;SDS011;56915;52.046;4.854;2023-04-29T02:31:26;24.20;;;11.45;;
69678;SDS011;56915;52.046;4.854;2023-04-29T02:33:54;21.10;;;10.43;;
69678;SDS011;56915;52.046;4.854;2023-04-29T02:36:21;25.23;;;10.60;;
69678;SDS011;56915;52.046;4.854;2023-04-29T02:38:48;21.80;;;10.70;;
69678;SDS011;56915;52.046;4.854;2023-04-29T02:41:16;22.65;;;10.55;;
69678;SDS011;56915;52.046;4.854;2023-04-29T02:43:43;19.00;;;9.82;;
69678;SDS011;56915;52.046;4.854;2023-04-29T02:46:10;22.90;;;10.73;;
69678;SDS011;56915;52.046;4.854;2023-04-29T02:48:37;22.27;;;11.00;;
69678;SDS011;56915;52.046;4.854;2023-04-29T02:51:04;23.00;;;10.27;;
69678;SDS011;56915;52.046;4.854;2023-04-29T02:53:31;25.10;;;10.27;;
69678;SDS011;56915;52.046;4.854;2023-04-29T02:55:58;24.02;;;10.40;;
69678;SDS011;56915;52.046;4.854;2023-04-29T02:58:25;23.33;;;10.90;;
69678;SDS011;56915;52.046;4.854;2023-04-29T03:00:52;23.25;;;10.88;;
69678;SDS011;56915;52.046;4.854;2023-04-29T03:03:19;21.33;;;9.50;;
69678;SDS011;56915;52.046;4.854;2023-04-29T03:05:46;22.45;;;10.20;;
69678;SDS011;56915;52.046;4.854;2023-04-29T03:08:13;23.38;;;12.00;;
69678;SDS011;56915;52.046;4.854;2023-04-29T03:10:40;25.25;;;12.27;;
69678;SDS011;56915;52.046;4.854;2023-04-29T03:13:08;23.95;;;11.18;;
69678;SDS011;56915;52.046;4.854;2023-04-29T03:15:34;20.03;;;9.93;;
69678;SDS011;56915;52.046;4.854;2023-04-29T03:18:02;25.67;;;12.15;;
69678;SDS011;56915;52.046;4.854;2023-04-29T03:20:30;25.33;;;11.77;;
69678;SDS011;56915;52.046;4.854;2023-04-29T03:22:57;25.08;;;12.25;;
69678;SDS011;56915;52.046;4.854;2023-04-29T03:25:26;27.63;;;12.50;;
69678;SDS011;56915;52.046;4.854;2023-04-29T03:27:53;26.17;;;13.07;;
69678;SDS011;56915;52.046;4.854;2023-04-29T03:30:20;29.15;;;12.35;;
69678;SDS011;56915;52.046;4.854;2023-04-29T03:32:47;26.40;;;11.85;;
69678;SDS011;56915;52.046;4.854;2023-04-29T03:35:14;25.98;;;12.18;;
69678;SDS011;56915;52.046;4.854;2023-04-29T03:37:41;28.00;;;12.43;;
69678;SDS011;56915;52.046;4.854;2023-04-29T03:40:10;24.73;;;11.13;;
69678;SDS011;56915;52.046;4.854;2023-04-29T03:42:37;26.02;;;10.98;;
69678;SDS011;56915;52.046;4.854;2023-04-29T03:45:04;27.25;;;12.93;;
69678;SDS011;56915;52.046;4.854;2023-04-29T03:47:32;24.33;;;12.48;;
69678;SDS011;56915;52.046;4.854;2023-04-29T03:49:58;26.83;;;11.98;;
69678;SDS011;56915;52.046;4.854;2023-04-29T03:52:25;28.87;;;13.03;;
69678;SDS011;56915;52.046;4.854;2023-04-29T03:54:53;28.52;;;13.32;;
69678;SDS011;56915;52.046;4.854;2023-04-29T03:57:20;27.02;;;12.77;;
69678;SDS011;56915;52.046;4.854;2023-04-29T03:59:47;25.83;;;12.70;;
69678;SDS011;56915;52.046;4.854;2023-04-29T04:02:17;28.13;;;13.80;;
69678;SDS011;56915;52.046;4.854;2023-04-29T04:04:44;29.90;;;12.50;;
69678;SDS011;56915;52.046;4.854;2023-04-29T04:07:11;31.33;;;13.77;;
69678;SDS011;56915;52.046;4.854;2023-04-29T04:09:38;29.52;;;13.88;;
69678;SDS011;56915;52.046;4.854;2023-04-29T04:12:05;29.30;;;12.95;;
69678;SDS011;56915;52.046;4.854;2023-04-29T04:14:32;27.00;;;13.02;;
69678;SDS011;56915;52.046;4.854;2023-04-29T04:16:59;25.53;;;12.87;;
69678;SDS011;56915;52.046;4.854;2023-04-29T04:19:26;27.00;;;13.02;;
69678;SDS011;56915;52.046;4.854;2023-04-29T04:21:54;29.50;;;13.68;;
69678;SDS011;56915;52.046;4.854;2023-04-29T04:24:21;28.65;;;13.38;;
69678;SDS011;56915;52.046;4.854;2023-04-29T04:26:48;28.52;;;13.02;;
69678;SDS011;56915;52.046;4.854;2023-04-29T04:29:15;24.77;;;12.83;;
69678;SDS011;56915;52.046;4.854;2023-04-29T04:31:42;27.60;;;12.90;;
69678;SDS011;56915;52.046;4.854;2023-04-29T04:34:12;24.85;;;11.93;;
69678;SDS011;56915;52.046;4.854;2023-04-29T04:36:39;25.45;;;12.35;;
69678;SDS011;56915;52.046;4.854;2023-04-29T04:39:06;26.85;;;13.15;;
69678;SDS011;56915;52.046;4.854;2023-04-29T04:41:33;26.23;;;12.07;;
69678;SDS011;56915;52.046;4.854;2023-04-29T04:44:00;25.77;;;12.23;;
69678;SDS011;56915;52.046;4.854;2023-04-29T04:46:28;25.70;;;13.15;;
69678;SDS011;56915;52.046;4.854;2023-04-29T04:48:55;27.45;;;13.45;;
69678;SDS011;56915;52.046;4.854;2023-04-29T04:51:21;31.00;;;13.90;;
69678;SDS011;56915;52.046;4.854;2023-04-29T04:53:48;28.10;;;13.47;;
69678;SDS011;56915;52.046;4.854;2023-04-29T04:56:15;27.98;;;12.65;;
69678;SDS011;56915;52.046;4.854;2023-04-29T04:58:42;27.08;;;13.40;;
69678;SDS011;56915;52.046;4.854;2023-04-29T05:01:09;26.23;;;11.85;;
69678;SDS011;56915;52.046;4.854;2023-04-29T05:03:35;29.63;;;14.00;;
69678;SDS011;56915;52.046;4.854;2023-04-29T05:06:02;26.57;;;13.33;;
69678;SDS011;56915;52.046;4.854;2023-04-29T05:08:29;28.77;;;13.63;;
69678;SDS011;56915;52.046;4.854;2023-04-29T05:10:56;26.88;;;12.55;;
69678;SDS011;56915;52.046;4.854;2023-04-29T05:13:23;24.40;;;11.90;;
69678;SDS011;56915;52.046;4.854;2023-04-29T05:18:20;26.93;;;13.47;;
69678;SDS011;56915;52.046;4.854;2023-04-29T05:20:47;29.27;;;12.60;;
69678;SDS011;56915;52.046;4.854;2023-04-29T05:23:14;25.42;;;11.00;;
69678;SDS011;56915;52.046;4.854;2023-04-29T05:25:41;31.52;;;13.27;;
69678;SDS011;56915;52.046;4.854;2023-04-29T05:28:07;28.08;;;13.30;;
69678;SDS011;56915;52.046;4.854;2023-04-29T05:30:34;27.13;;;12.37;;
69678;SDS011;56915;52.046;4.854;2023-04-29T05:33:03;30.77;;;14.10;;
69678;SDS011;56915;52.046;4.854;2023-04-29T05:35:30;29.80;;;13.15;;
69678;SDS011;56915;52.046;4.854;2023-04-29T05:37:57;33.85;;;13.02;;
69678;SDS011;56915;52.046;4.854;2023-04-29T05:40:24;30.08;;;13.10;;
69678;SDS011;56915;52.046;4.854;2023-04-29T05:42:51;30.50;;;12.67;;
69678;SDS011;56915;52.046;4.854;2023-04-29T05:45:17;31.33;;;13.98;;
69678;SDS011;56915;52.046;4.854;2023-04-29T05:47:44;32.90;;;13.23;;
69678;SDS011;56915;52.046;4.854;2023-04-29T05:50:11;35.95;;;14.65;;
69678;SDS011;56915;52.046;4.854;2023-04-29T05:52:38;27.35;;;13.23;;
69678;SDS011;56915;52.046;4.854;2023-04-29T05:55:05;29.63;;;13.93;;
69678;SDS011;56915;52.046;4.854;2023-04-29T05:57:32;30.77;;;12.98;;
69678;SDS011;56915;52.046;4.854;2023-04-29T05:59:59;31.67;;;13.38;;
69678;SDS011;56915;52.046;4.854;2023-04-29T06:02:30;28.25;;;13.50;;
69678;SDS011;56915;52.046;4.854;2023-04-29T06:04:57;26.92;;;12.73;;
69678;SDS011;56915;52.046;4.854;2023-04-29T06:07:24;27.40;;;12.90;;
69678;SDS011;56915;52.046;4.854;2023-04-29T06:09:54;25.92;;;12.35;;
69678;SDS011;56915;52.046;4.854;2023-04-29T06:12:24;26.67;;;12.00;;
69678;SDS011;56915;52.046;4.854;2023-04-29T06:14:51;24.50;;;12.50;;
69678;SDS011;56915;52.046;4.854;2023-04-29T06:17:21;22.90;;;11.10;;
69678;SDS011;56915;52.046;4.854;2023-04-29T06:20:04;27.53;;;11.53;;
69678;SDS011;56915;52.046;4.854;2023-04-29T06:22:32;22.52;;;11.82;;
69678;SDS011;56915;52.046;4.854;2023-04-29T06:24:59;23.73;;;11.57;;
69678;SDS011;56915;52.046;4.854;2023-04-29T06:27:25;26.15;;;12.05;;
69678;SDS011;56915;52.046;4.854;2023-04-29T06:30:17;23.27;;;10.32;;
69678;SDS011;56915;52.046;4.854;2023-04-29T06:32:52;23.30;;;9.97;;
69678;SDS011;56915;52.046;4.854;2023-04-29T06:35:22;23.52;;;11.57;;
69678;SDS011;56915;52.046;4.854;2023-04-29T06:37:48;25.27;;;11.43;;
69678;SDS011;56915;52.046;4.854;2023-04-29T06:40:16;28.55;;;11.65;;
69678;SDS011;56915;52.046;4.854;2023-04-29T06:42:42;22.02;;;10.93;;
69678;SDS011;56915;52.046;4.854;2023-04-29T06:45:09;24.00;;;10.80;;
69678;SDS011;56915;52.046;4.854;2023-04-29T06:47:36;20.10;;;9.38;;
69678;SDS011;56915;52.046;4.854;2023-04-29T06:52:39;19.85;;;10.32;;
69678;SDS011;56915;52.046;4.854;2023-04-29T06:55:06;19.95;;;11.30;;
69678;SDS011;56915;52.046;4.854;2023-04-29T06:57:33;23.37;;;10.47;;
69678;SDS011;56915;52.046;4.854;2023-04-29T07:00:02;24.55;;;11.52;;
69678;SDS011;56915;52.046;4.854;2023-04-29T07:02:29;21.70;;;9.73;;
69678;SDS011;56915;52.046;4.854;2023-04-29T07:05:04;21.13;;;10.43;;
69678;SDS011;56915;52.046;4.854;2023-04-29T07:07:46;18.52;;;8.90;;
69678;SDS011;56915;52.046;4.854;2023-04-29T07:10:21;17.47;;;8.40;;
69678;SDS011;56915;52.046;4.854;2023-04-29T07:12:55;18.23;;;8.25;;
69678;SDS011;56915;52.046;4.854;2023-04-29T07:15:22;18.52;;;8.13;;
69678;SDS011;56915;52.046;4.854;2023-04-29T07:17:52;15.75;;;8.80;;
69678;SDS011;56915;52.046;4.854;2023-04-29T07:20:19;23.38;;;8.63;;
69678;SDS011;56915;52.046;4.854;2023-04-29T07:22:47;16.07;;;7.80;;
69678;SDS011;56915;52.046;4.854;2023-04-29T07:25:14;18.23;;;8.70;;
69678;SDS011;56915;52.046;4.854;2023-04-29T07:27:41;18.08;;;8.30;;
69678;SDS011;56915;52.046;4.854;2023-04-29T07:30:08;16.85;;;8.20;;
69678;SDS011;56915;52.046;4.854;2023-04-29T07:32:35;13.95;;;6.57;;
69678;SDS011;56915;52.046;4.854;2023-04-29T07:35:13;16.20;;;7.80;;
69678;SDS011;56915;52.046;4.854;2023-04-29T07:37:40;13.32;;;7.30;;
69678;SDS011;56915;52.046;4.854;2023-04-29T07:40:09;20.83;;;7.50;;
69678;SDS011;56915;52.046;4.854;2023-04-29T07:42:36;15.48;;;7.78;;
69678;SDS011;56915;52.046;4.854;2023-04-29T07:45:03;15.35;;;7.82;;
69678;SDS011;56915;52.046;4.854;2023-04-29T07:47:30;11.23;;;5.47;;
69678;SDS011;56915;52.046;4.854;2023-04-29T07:49:57;16.48;;;7.85;;
69678;SDS011;56915;52.046;4.854;2023-04-29T07:52:24;14.80;;;7.53;;
69678;SDS011;56915;52.046;4.854;2023-04-29T07:54:51;15.10;;;8.05;;
69678;SDS011;56915;52.046;4.854;2023-04-29T07:57:18;11.40;;;6.57;;
69678;SDS011;56915;52.046;4.854;2023-04-29T07:59:45;12.90;;;7.00;;
69678;SDS011;56915;52.046;4.854;2023-04-29T08:02:12;15.63;;;7.40;;
69678;SDS011;56915;52.046;4.854;2023-04-29T08:04:39;16.60;;;7.53;;
69678;SDS011;56915;52.046;4.854;2023-04-29T08:07:08;11.65;;;6.28;;
69678;SDS011;56915;52.046;4.854;2023-04-29T08:09:34;13.32;;;7.25;;
69678;SDS011;56915;52.046;4.854;2023-04-29T08:12:01;15.80;;;8.03;;
69678;SDS011;56915;52.046;4.854;2023-04-29T08:14:28;12.88;;;6.88;;
69678;SDS011;56915;52.046;4.854;2023-04-29T08:16:55;16.42;;;7.93;;
69678;SDS011;56915;52.046;4.854;2023-04-29T08:19:36;14.98;;;7.80;;
69678;SDS011;56915;52.046;4.854;2023-04-29T08:25:44;12.63;;;7.43;;
69678;SDS011;56915;52.046;4.854;2023-04-29T08:28:14;14.65;;;8.05;;
69678;SDS011;56915;52.046;4.854;2023-04-29T08:30:42;13.85;;;7.30;;
69678;SDS011;56915;52.046;4.854;2023-04-29T08:33:09;13.27;;;7.50;;
69678;SDS011;56915;52.046;4.854;2023-04-29T08:35:38;13.18;;;6.90;;
69678;SDS011;56915;52.046;4.854;2023-04-29T08:38:05;13.97;;;7.37;;
69678;SDS011;56915;52.046;4.854;2023-04-29T08:40:33;13.57;;;7.18;;
69678;SDS011;56915;52.046;4.854;2023-04-29T08:43:02;15.50;;;8.10;;
69678;SDS011;56915;52.046;4.854;2023-04-29T08:45:30;15.27;;;7.15;;
69678;SDS011;56915;52.046;4.854;2023-04-29T08:47:59;12.80;;;7.05;;
69678;SDS011;56915;52.046;4.854;2023-04-29T08:50:28;12.87;;;6.97;;
69678;SDS011;56915;52.046;4.854;2023-04-29T08:52:56;13.73;;;7.40;;
69678;SDS011;56915;52.046;4.854;2023-04-29T08:55:23;13.30;;;6.60;;
69678;SDS011;56915;52.046;4.854;2023-04-29T08:57:51;11.80;;;6.55;;
69678;SDS011;56915;52.046;4.854;2023-04-29T09:00:21;12.32;;;7.07;;
69678;SDS011;56915;52.046;4.854;2023-04-29T09:02:50;12.80;;;6.93;;
69678;SDS011;56915;52.046;4.854;2023-04-29T09:05:18;12.65;;;6.78;;
69678;SDS011;56915;52.046;4.854;2023-04-29T09:07:47;12.43;;;6.97;;
69678;SDS011;56915;52.046;4.854;2023-04-29T09:10:15;11.90;;;7.32;;
69678;SDS011;56915;52.046;4.854;2023-04-29T09:12:43;11.57;;;6.95;;
69678;SDS011;56915;52.046;4.854;2023-04-29T09:15:11;11.40;;;6.07;;
69678;SDS011;56915;52.046;4.854;2023-04-29T09:17:45;10.80;;;5.68;;
69678;SDS011;56915;52.046;4.854;2023-04-29T09:22:50;10.65;;;6.18;;
69678;SDS011;56915;52.046;4.854;2023-04-29T09:25:18;12.35;;;6.50;;
69678;SDS011;56915;52.046;4.854;2023-04-29T09:30:45;9.88;;;6.15;;
69678;SDS011;56915;52.046;4.854;2023-04-29T09:33:12;10.98;;;5.85;;
69678;SDS011;56915;52.046;4.854;2023-04-29T09:35:40;9.70;;;5.30;;
69678;SDS011;56915;52.046;4.854;2023-04-29T09:38:10;8.05;;;4.75;;
69678;SDS011;56915;52.046;4.854;2023-04-29T09:40:39;7.60;;;4.87;;
69678;SDS011;56915;52.046;4.854;2023-04-29T09:43:24;7.68;;;4.88;;
69678;SDS011;56915;52.046;4.854;2023-04-29T09:45:52;6.43;;;3.85;;
69678;SDS011;56915;52.046;4.854;2023-04-29T09:48:19;7.18;;;4.60;;
69678;SDS011;56915;52.046;4.854;2023-04-29T09:50:57;8.95;;;5.63;;
69678;SDS011;56915;52.046;4.854;2023-04-29T09:53:27;8.60;;;4.00;;
69678;SDS011;56915;52.046;4.854;2023-04-29T09:55:57;8.13;;;5.30;;
69678;SDS011;56915;52.046;4.854;2023-04-29T09:58:29;10.45;;;4.60;;
69678;SDS011;56915;52.046;4.854;2023-04-29T10:01:03;8.23;;;4.55;;
69678;SDS011;56915;52.046;4.854;2023-04-29T10:03:34;7.65;;;4.82;;
69678;SDS011;56915;52.046;4.854;2023-04-29T10:06:03;9.07;;;5.17;;
69678;SDS011;56915;52.046;4.854;2023-04-29T10:08:31;7.47;;;4.82;;
69678;SDS011;56915;52.046;4.854;2023-04-29T10:11:00;8.65;;;5.20;;
69678;SDS011;56915;52.046;4.854;2023-04-29T10:13:29;7.90;;;4.80;;
69678;SDS011;56915;52.046;4.854;2023-04-29T10:15:57;8.60;;;5.60;;
69678;SDS011;56915;52.046;4.854;2023-04-29T10:18:53;11.37;;;5.50;;
69678;SDS011;56915;52.046;4.854;2023-04-29T10:21:26;11.98;;;6.40;;
69678;SDS011;56915;52.046;4.854;2023-04-29T10:23:57;11.68;;;6.43;;
69678;SDS011;56915;52.046;4.854;2023-04-29T10:26:27;11.55;;;6.25;;
69678;SDS011;56915;52.046;4.854;2023-04-29T10:28:55;9.43;;;5.38;;
69678;SDS011;56915;52.046;4.854;2023-04-29T10:31:26;8.80;;;5.57;;
69678;SDS011;56915;52.046;4.854;2023-04-29T10:33:54;9.27;;;5.53;;
69678;SDS011;56915;52.046;4.854;2023-04-29T10:36:22;10.88;;;5.38;;
69678;SDS011;56915;52.046;4.854;2023-04-29T10:38:54;9.82;;;5.47;;
69678;SDS011;56915;52.046;4.854;2023-04-29T10:41:29;8.25;;;5.35;;
69678;SDS011;56915;52.046;4.854;2023-04-29T10:44:00;11.87;;;6.10;;
69678;SDS011;56915;52.046;4.854;2023-04-29T10:46:29;11.88;;;6.43;;
69678;SDS011;56915;52.046;4.854;2023-04-29T10:48:59;10.98;;;5.68;;
69678;SDS011;56915;52.046;4.854;2023-04-29T10:51:29;13.55;;;5.97;;
69678;SDS011;56915;52.046;4.854;2023-04-29T10:56:40;9.50;;;5.43;;
69678;SDS011;56915;52.046;4.854;2023-04-29T11:00:02;11.30;;;5.60;;
69678;SDS011;56915;52.046;4.854;2023-04-29T11:02:02;9.25;;;6.03;;
69678;SDS011;56915;52.046;4.854;2023-04-29T11:04:29;12.38;;;6.10;;
69678;SDS011;56915;52.046;4.854;2023-04-29T11:06:57;12.82;;;6.50;;
69678;SDS011;56915;52.046;4.854;2023-04-29T11:09:28;10.77;;;5.70;;
69678;SDS011;56915;52.046;4.854;2023-04-29T11:12:02;7.93;;;4.63;;
69678;SDS011;56915;52.046;4.854;2023-04-29T11:17:12;9.25;;;4.68;;
69678;SDS011;56915;52.046;4.854;2023-04-29T11:19:49;7.38;;;4.80;;
69678;SDS011;56915;52.046;4.854;2023-04-29T11:24:51;7.18;;;4.25;;
69678;SDS011;56915;52.046;4.854;2023-04-29T11:27:23;9.73;;;5.50;;
69678;SDS011;56915;52.046;4.854;2023-04-29T11:29:52;8.38;;;5.07;;
69678;SDS011;56915;52.046;4.854;2023-04-29T11:32:27;8.30;;;4.68;;
69678;SDS011;56915;52.046;4.854;2023-04-29T11:35:06;6.40;;;4.00;;
69678;SDS011;56915;52.046;4.854;2023-04-29T11:37:43;5.55;;;3.58;;
69678;SDS011;56915;52.046;4.854;2023-04-29T11:40:11;5.95;;;3.50;;
69678;SDS011;56915;52.046;4.854;2023-04-29T11:42:40;5.80;;;3.60;;
69678;SDS011;56915;52.046;4.854;2023-04-29T11:45:09;5.63;;;3.88;;
69678;SDS011;56915;52.046;4.854;2023-04-29T11:47:41;5.57;;;3.80;;
69678;SDS011;56915;52.046;4.854;2023-04-29T11:50:10;7.47;;;3.20;;
69678;SDS011;56915;52.046;4.854;2023-04-29T11:52:38;4.18;;;2.97;;
69678;SDS011;56915;52.046;4.854;2023-04-29T11:55:09;4.97;;;3.30;;
69678;SDS011;56915;52.046;4.854;2023-04-29T11:57:37;7.50;;;3.20;;
69678;SDS011;56915;52.046;4.854;2023-04-29T12:00:08;4.20;;;3.07;;
69678;SDS011;56915;52.046;4.854;2023-04-29T12:02:42;5.10;;;2.78;;
69678;SDS011;56915;52.046;4.854;2023-04-29T12:05:10;4.50;;;2.53;;
69678;SDS011;56915;52.046;4.854;2023-04-29T12:07:39;6.95;;;3.42;;
69678;SDS011;56915;52.046;4.854;2023-04-29T12:10:09;5.13;;;2.70;;
69678;SDS011;56915;52.046;4.854;2023-04-29T12:12:40;6.80;;;3.50;;
69678;SDS011;56915;52.046;4.854;2023-04-29T12:15:09;5.10;;;3.13;;
69678;SDS011;56915;52.046;4.854;2023-04-29T12:17:37;4.65;;;2.80;;
69678;SDS011;56915;52.046;4.854;2023-04-29T12:20:05;6.03;;;3.30;;
69678;SDS011;56915;52.046;4.854;2023-04-29T12:22:36;5.05;;;2.70;;
69678;SDS011;56915;52.046;4.854;2023-04-29T12:25:03;5.67;;;3.70;;
69678;SDS011;56915;52.046;4.854;2023-04-29T12:27:31;6.97;;;3.30;;
69678;SDS011;56915;52.046;4.854;2023-04-29T12:29:59;6.93;;;3.63;;
69678;SDS011;56915;52.046;4.854;2023-04-29T12:32:26;7.57;;;4.10;;
69678;SDS011;56915;52.046;4.854;2023-04-29T12:34:53;8.57;;;3.90;;
69678;SDS011;56915;52.046;4.854;2023-04-29T12:37:21;6.10;;;4.07;;
69678;SDS011;56915;52.046;4.854;2023-04-29T12:39:53;7.40;;;4.35;;
69678;SDS011;56915;52.046;4.854;2023-04-29T12:42:20;8.10;;;4.28;;
69678;SDS011;56915;52.046;4.854;2023-04-29T12:44:47;7.50;;;3.60;;
69678;SDS011;56915;52.046;4.854;2023-04-29T12:47:14;6.38;;;3.88;;
69678;SDS011;56915;52.046;4.854;2023-04-29T12:49:43;7.50;;;4.40;;
69678;SDS011;56915;52.046;4.854;2023-04-29T12:52:10;6.63;;;3.92;;
69678;SDS011;56915;52.046;4.854;2023-04-29T12:54:38;6.43;;;3.85;;
69678;SDS011;56915;52.046;4.854;2023-04-29T12:57:09;6.72;;;4.00;;
69678;SDS011;56915;52.046;4.854;2023-04-29T12:59:37;7.32;;;3.65;;
69678;SDS011;56915;52.046;4.854;2023-04-29T13:02:06;7.60;;;4.53;;
69678;SDS011;56915;52.046;4.854;2023-04-29T13:04:33;6.90;;;4.25;;
69678;SDS011;56915;52.046;4.854;2023-04-29T13:07:00;5.10;;;3.42;;
69678;SDS011;56915;52.046;4.854;2023-04-29T13:09:27;6.30;;;3.90;;
69678;SDS011;56915;52.046;4.854;2023-04-29T13:11:55;9.13;;;5.00;;
69678;SDS011;56915;52.046;4.854;2023-04-29T13:14:22;6.73;;;3.97;;
69678;SDS011;56915;52.046;4.854;2023-04-29T13:16:49;7.55;;;4.72;;
69678;SDS011;56915;52.046;4.854;2023-04-29T13:19:16;7.70;;;4.45;;
69678;SDS011;56915;52.046;4.854;2023-04-29T13:22:03;6.45;;;4.45;;
69678;SDS011;56915;52.046;4.854;2023-04-29T13:24:30;7.97;;;5.18;;
69678;SDS011;56915;52.046;4.854;2023-04-29T13:26:58;7.37;;;3.93;;
69678;SDS011;56915;52.046;4.854;2023-04-29T13:29:25;6.95;;;4.50;;
69678;SDS011;56915;52.046;4.854;2023-04-29T13:31:52;8.40;;;4.65;;
69678;SDS011;56915;52.046;4.854;2023-04-29T13:34:19;7.18;;;4.22;;
69678;SDS011;56915;52.046;4.854;2023-04-29T13:36:46;7.60;;;4.43;;
69678;SDS011;56915;52.046;4.854;2023-04-29T13:39:13;9.70;;;4.70;;
69678;SDS011;56915;52.046;4.854;2023-04-29T13:41:40;6.20;;;4.00;;
69678;SDS011;56915;52.046;4.854;2023-04-29T13:44:11;6.50;;;4.40;;
69678;SDS011;56915;52.046;4.854;2023-04-29T13:46:54;6.50;;;4.00;;
69678;SDS011;56915;52.046;4.854;2023-04-29T13:49:20;6.82;;;4.40;;
69678;SDS011;56915;52.046;4.854;2023-04-29T13:52:07;8.20;;;4.53;;
69678;SDS011;56915;52.046;4.854;2023-04-29T13:54:38;10.95;;;4.50;;
69678;SDS011;56915;52.046;4.854;2023-04-29T13:57:08;6.80;;;4.25;;
69678;SDS011;56915;52.046;4.854;2023-04-29T13:59:38;6.53;;;4.70;;
69678;SDS011;56915;52.046;4.854;2023-04-29T14:02:17;7.75;;;4.93;;
69678;SDS011;56915;52.046;4.854;2023-04-29T14:04:50;9.37;;;4.80;;
69678;SDS011;56915;52.046;4.854;2023-04-29T14:07:17;6.57;;;4.70;;
69678;SDS011;56915;52.046;4.854;2023-04-29T14:09:44;9.55;;;5.30;;
69678;SDS011;56915;52.046;4.854;2023-04-29T14:12:11;6.97;;;4.40;;
69678;SDS011;56915;52.046;4.854;2023-04-29T14:14:38;8.57;;;5.38;;
69678;SDS011;56915;52.046;4.854;2023-04-29T14:17:05;9.47;;;5.23;;
69678;SDS011;56915;52.046;4.854;2023-04-29T14:19:32;8.15;;;5.53;;
69678;SDS011;56915;52.046;4.854;2023-04-29T14:21:58;12.82;;;4.90;;
69678;SDS011;56915;52.046;4.854;2023-04-29T14:24:25;6.78;;;5.00;;
69678;SDS011;56915;52.046;4.854;2023-04-29T14:26:52;9.85;;;5.32;;
69678;SDS011;56915;52.046;4.854;2023-04-29T14:29:19;8.90;;;5.30;;
69678;SDS011;56915;52.046;4.854;2023-04-29T14:31:45;7.07;;;4.20;;
69678;SDS011;56915;52.046;4.854;2023-04-29T14:34:12;6.43;;;4.35;;
69678;SDS011;56915;52.046;4.854;2023-04-29T14:36:39;7.55;;;4.30;;
69678;SDS011;56915;52.046;4.854;2023-04-29T14:39:06;7.80;;;4.78;;
69678;SDS011;56915;52.046;4.854;2023-04-29T14:41:33;9.77;;;5.23;;
69678;SDS011;56915;52.046;4.854;2023-04-29T14:44:00;7.03;;;4.88;;
69678;SDS011;56915;52.046;4.854;2023-04-29T14:46:27;7.20;;;4.80;;
69678;SDS011;56915;52.046;4.854;2023-04-29T14:48:54;7.63;;;4.85;;
69678;SDS011;56915;52.046;4.854;2023-04-29T14:51:21;7.78;;;4.47;;
69678;SDS011;56915;52.046;4.854;2023-04-29T14:53:48;6.60;;;4.77;;
69678;SDS011;56915;52.046;4.854;2023-04-29T14:56:15;7.38;;;4.55;;
69678;SDS011;56915;52.046;4.854;2023-04-29T14:58:43;9.10;;;5.63;;
69678;SDS011;56915;52.046;4.854;2023-04-29T15:01:09;6.70;;;4.50;;
69678;SDS011;56915;52.046;4.854;2023-04-29T15:03:36;8.15;;;5.65;;
69678;SDS011;56915;52.046;4.854;2023-04-29T15:06:09;5.97;;;4.43;;
69678;SDS011;56915;52.046;4.854;2023-04-29T15:08:36;6.63;;;4.82;;
69678;SDS011;56915;52.046;4.854;2023-04-29T15:11:03;7.53;;;5.10;;
69678;SDS011;56915;52.046;4.854;2023-04-29T15:13:30;7.00;;;5.38;;